Rechercher aéroport 
image banner adimage banner adimage banner ad
image banner ad

1O2 - Lampson Field

Situé à Lakeport, United States

ICAO - 1O2, IATA -

Données fournies par Airmate  

Information générale

Coordonnées: N38°59'26" W122°54'3"
Élévation : 1380 feet MSL.
Variation magnétique : 16° East
Voir autres Aéroports à California

Données opérationnelles

Special qualification required
Heure actuelle UTC:
Heure actuelle locale:
Météo à : KUKI - Ukiah Muni ( 30 km )
METAR: KUKI 262156Z AUTO 16010KT 10SM CLR 32/11 A2983 RMK AO2 SLP092 T03220106
TAF: KUKI 261739Z 2618/2718 15007KT P6SM SKC FM270300 VRB05KT P6SM BKN250 FM270900 17006KT 5SM BR VCSH BKN120 FM271300 15003KT P6SM OVC250
Voir NOTAMs / SUP AIP / TFR affectant cet aéroport [VIEW]
Fréquences de communication: [VIEW]

Pistes:

Identifiant RWYQFULongueur (ft)Largeur (ft)SurfaceLDA (ft)
10119°360060ASPH
28299°360060ASPH

Coordonnées de l'aéroport

Adresse: Lakeport United States

Vue satellite de 1O2